Time;durP1;ratioP1;P1;durP2;ratioP2;P2;SDS_P1;SDS_P2;PMS_P1;PMS_P2;Temp;Humidity;BMP_temperature;BMP_pressure;BME280_temperature;BME280_humidity;BME280_pressure;Samples;Min_cycle;Max_cycle;Signal;HPM_P1;HPM_P2
2021/03/14 00:02:18;;;;;;;;;;;;;;;2.05;91.43;99476.03;5074488;28;941;-71
2021/03/14 00:04:43;;;;;;;;;;;;;;;2.10;90.84;99470.44;5073881;28;919;-71
2021/03/14 00:07:08;;;;;;;;;;;;;;;2.03;91.11;99484.53;5073788;28;1012;-72
2021/03/14 00:09:34;;;;;;;;;;;;;;;2.01;91.23;99489.50;5073958;28;1894;-71
2021/03/14 00:11:59;;;;;;;;;;;;;;;1.95;92.01;99503.59;5073856;28;936;-71
2021/03/14 00:14:25;;;;;;;;;;;;;;;1.93;92.15;99505.81;5089372;28;1222;-71
2021/03/14 00:16:53;;;;;;;;;;;;;;;2.00;91.85;99498.78;5076487;28;859;-71
2021/03/14 00:19:19;;;;;;;;;;;;;;;1.95;91.42;99509.81;5077380;28;1345;-71
2021/03/14 00:21:44;;;;;;;;;;;;;;;1.91;91.48;99521.69;5077662;28;920;-71
2021/03/14 00:24:10;;;;;;;;;;;;;;;1.91;91.78;99514.31;5077458;28;866;-71
2021/03/14 00:26:35;;;;;;;;;;;;;;;1.93;91.40;99512.06;5077440;28;992;-72
2021/03/14 00:29:01;;;;;;;;;;;;;;;1.90;91.86;99515.41;5077067;28;1947;-71
2021/03/14 00:31:27;;;;;;;;;;;;;;;1.96;91.70;99518.81;5077469;28;876;-71
2021/03/14 00:33:52;;;;;;;;;;;;;;;2.01;91.15;99554.06;5077041;28;972;-72
2021/03/14 00:36:17;;;;;;;;;;;;;;;2.01;90.99;99548.59;5077210;28;996;-72
2021/03/14 00:38:43;;;;;;;;;;;;;;;2.09;90.57;99549.72;5076984;28;1361;-72
2021/03/14 00:41:10;;;;;;;;;;;;;;;2.07;90.96;99537.22;5078462;28;908;-72
2021/03/14 00:43:36;;;;;;;;;;;;;;;2.11;91.36;99558.38;5077197;28;948;-71
2021/03/14 00:46:01;;;;;;;;;;;;;;;2.18;90.60;99564.97;5077427;28;920;-71
2021/03/14 00:48:26;;;;;;;;;;;;;;;2.25;90.67;99568.03;5076823;28;1902;-71
2021/03/14 00:50:52;;;;;;;;;;;;;;;2.20;90.41;99579.06;5077100;28;933;-71
2021/03/14 00:53:17;;;;;;;;;;;;;;;2.23;90.07;99583.88;5077004;28;849;-71
2021/03/14 00:55:42;;;;;;;;;;;;;;;2.20;90.06;99579.06;5076845;28;813;-71
2021/03/14 00:58:07;;;;;;;;;;;;;;;2.18;90.12;99591.38;5076703;28;1349;-71
2021/03/14 01:00:33;;;;;;;;;;;;;;;2.15;89.93;99598.28;5077607;28;976;-71
2021/03/14 01:02:58;;;;;;;;;;;;;;;2.12;90.04;99609.00;5076825;28;969;-71
2021/03/14 01:05:24;;;;;;;;;;;;;;;2.18;88.63;99613.16;5076893;28;801;-71
2021/03/14 01:07:49;;;;;;;;;;;;;;;2.18;88.60;99621.34;5075261;28;1378;-71
2021/03/14 01:10:15;;;;;;;;;;;;;;;2.16;88.49;99618.13;5076546;28;1950;-71
2021/03/14 01:12:41;;;;;;;;;;;;;;;2.03;89.82;99620.69;5076542;28;908;-71
2021/03/14 01:15:08;;;;;;;;;;;;;;;1.98;90.02;99626.25;5076811;28;969;-71
2021/03/14 01:17:34;;;;;;;;;;;;;;;2.06;89.75;99636.38;5076511;28;1247;-71
2021/03/14 01:19:59;;;;;;;;;;;;;;;1.98;90.13;99631.72;5076414;28;1341;-71
2021/03/14 01:22:25;;;;;;;;;;;;;;;1.95;90.17;99645.16;5076475;28;1003;-71
2021/03/14 01:24:50;;;;;;;;;;;;;;;1.92;90.57;99643.88;5076336;28;1000;-71
2021/03/14 01:27:16;;;;;;;;;;;;;;;1.93;90.39;99656.34;5073560;28;1283;-72
2021/03/14 01:29:41;;;;;;;;;;;;;;;1.94;90.28;99659.88;5075971;28;1898;-71
2021/03/14 01:32:07;;;;;;;;;;;;;;;1.92;90.40;99656.66;5076378;28;934;-71
2021/03/14 01:34:32;;;;;;;;;;;;;;;1.88;90.63;99665.47;5076154;28;972;-71
2021/03/14 01:36:57;;;;;;;;;;;;;;;1.96;90.05;99663.09;5076087;28;877;-71
2021/03/14 01:39:23;;;;;;;;;;;;;;;1.91;90.29;99671.41;5076088;28;1258;-71
2021/03/14 01:41:48;;;;;;;;;;;;;;;1.91;90.77;99668.69;5076383;28;932;-71
2021/03/14 01:44:13;;;;;;;;;;;;;;;1.88;91.43;99675.56;5076006;28;1035;-71
2021/03/14 01:46:39;;;;;;;;;;;;;;;1.92;90.73;99684.72;5074824;28;1631;-71
2021/03/14 01:49:05;;;;;;;;;;;;;;;1.92;90.60;99678.44;5075708;28;1957;-71
2021/03/14 01:51:32;;;;;;;;;;;;;;;1.91;90.73;99683.09;5075945;28;976;-71
2021/03/14 01:53:58;;;;;;;;;;;;;;;1.92;90.99;99687.44;5074557;28;1359;-71
2021/03/14 01:56:24;;;;;;;;;;;;;;;1.79;90.68;99670.06;5076005;28;971;-71
2021/03/14 01:58:50;;;;;;;;;;;;;;;1.87;90.81;99698.47;5075577;28;1309;-71
2021/03/14 02:01:17;;;;;;;;;;;;;;;1.83;90.11;99692.81;5075673;28;1075;-71
2021/03/14 02:03:42;;;;;;;;;;;;;;;1.82;89.68;99693.94;5076014;28;983;-71
2021/03/14 02:06:08;;;;;;;;;;;;;;;1.73;90.73;99686.84;5075648;28;893;-72
2021/03/14 02:08:33;;;;;;;;;;;;;;;1.68;91.04;99709.56;5074037;28;1941;-72
2021/03/14 02:10:58;;;;;;;;;;;;;;;1.66;91.44;99709.88;5074370;28;1388;-72
2021/03/14 02:13:32;;;;;;;;;;;;;;;1.64;91.54;99723.00;5075395;28;996;-72
2021/03/14 02:16:43;;;;;;;;;;;;;;;1.65;91.59;99710.97;5074196;28;920;-72
2021/03/14 02:19:19;;;;;;;;;;;;;;;1.64;92.27;99723.00;5053083;28;1412;-72
2021/03/14 02:21:45;;;;;;;;;;;;;;;1.64;92.13;99733.06;5071261;28;1370;-71
2021/03/14 02:24:18;;;;;;;;;;;;;;;1.72;91.57;99732.31;5076444;28;963;-72
2021/03/14 02:27:13;;;;;;;;;;;;;;;1.70;91.64;99723.66;5077019;28;976;-72
2021/03/14 02:29:41;;;;;;;;;;;;;;;1.76;91.44;99733.28;5070815;28;1886;-71
2021/03/14 02:32:08;;;;;;;;;;;;;;;1.72;91.41;99735.03;5075232;28;1051;-71
2021/03/14 02:34:37;;;;;;;;;;;;;;;1.76;91.38;99737.94;5075364;28;966;-71
2021/03/14 02:37:05;;;;;;;;;;;;;;;1.74;91.01;99748.34;5073859;28;1345;-72
2021/03/14 02:39:33;;;;;;;;;;;;;;;1.73;91.91;99754.88;5074621;28;1282;-71
2021/03/14 02:42:00;;;;;;;;;;;;;;;1.74;91.32;99745.63;5074963;28;927;-71
2021/03/14 02:44:42;;;;;;;;;;;;;;;1.74;91.37;99757.31;5075057;28;925;-71
2021/03/14 02:47:08;;;;;;;;;;;;;;;1.73;90.95;99761.16;5074734;28;813;-71
2021/03/14 02:49:37;;;;;;;;;;;;;;;1.80;90.62;99772.41;5074754;28;2026;-71
2021/03/14 02:52:04;;;;;;;;;;;;;;;1.83;89.91;99774.47;5075255;28;916;-71
2021/03/14 02:54:32;;;;;;;;;;;;;;;1.84;89.77;99781.53;5074895;28;850;-71
2021/03/14 02:56:59;;;;;;;;;;;;;;;1.80;89.59;99780.56;5075113;28;856;-71
2021/03/14 02:59:24;;;;;;;;;;;;;;;1.79;89.94;99786.31;5074448;28;1258;-72
2021/03/14 03:01:51;;;;;;;;;;;;;;;1.77;90.28;99791.28;5074682;28;876;-72
2021/03/14 03:04:24;;;;;;;;;;;;;;;1.84;89.26;99802.53;5074953;28;795;-71
2021/03/14 03:06:52;;;;;;;;;;;;;;;1.99;87.75;99799.41;5074576;28;817;-71
2021/03/14 03:09:18;;;;;;;;;;;;;;;1.97;88.07;99803.56;5074335;28;1973;-71
2021/03/14 03:11:48;;;;;;;;;;;;;;;1.89;88.92;99813.28;5073394;28;1339;-71
2021/03/14 03:14:15;;;;;;;;;;;;;;;1.94;87.81;99812.34;5074562;28;909;-71
2021/03/14 03:16:42;;;;;;;;;;;;;;;1.95;87.97;99819.41;5074493;28;1156;-71
2021/03/14 03:19:11;;;;;;;;;;;;;;;1.89;88.59;99824.19;5074290;28;1274;-71
2021/03/14 03:21:37;;;;;;;;;;;;;;;1.93;88.10;99824.38;5074323;28;810;-71
2021/03/14 03:24:04;;;;;;;;;;;;;;;1.97;87.49;99814.44;5074552;28;1004;-71
2021/03/14 03:26:29;;;;;;;;;;;;;;;1.97;87.54;99830.78;5074541;28;1007;-71
2021/03/14 03:28:55;;;;;;;;;;;;;;;2.02;87.16;99826.00;5074025;28;1960;-71
2021/03/14 03:31:20;;;;;;;;;;;;;;;2.01;87.54;99834.50;5074575;28;888;-71
2021/03/14 03:33:45;;;;;;;;;;;;;;;2.00;87.44;99833.69;5074197;28;957;-71
2021/03/14 03:36:11;;;;;;;;;;;;;;;2.09;87.03;99835.66;5074401;28;809;-71
2021/03/14 03:38:36;;;;;;;;;;;;;;;2.09;86.66;99839.19;5074124;28;1274;-71
2021/03/14 03:41:02;;;;;;;;;;;;;;;2.16;85.78;99849.66;5074222;28;846;-71
2021/03/14 03:43:32;;;;;;;;;;;;;;;2.15;85.67;99850.78;5074461;28;864;-71
2021/03/14 03:46:02;;;;;;;;;;;;;;;2.09;86.61;99858.25;5074222;28;964;-71
2021/03/14 03:48:43;;;;;;;;;;;;;;;2.06;86.93;99854.25;5073938;28;1975;-71
2021/03/14 03:51:09;;;;;;;;;;;;;;;2.12;85.36;99863.09;5075521;28;919;-72
2021/03/14 03:53:37;;;;;;;;;;;;;;;2.12;85.33;99868.53;5078253;28;940;-72
2021/03/14 03:56:02;;;;;;;;;;;;;;;2.12;85.53;99862.28;5078110;28;983;-72
2021/03/14 03:58:30;;;;;;;;;;;;;;;2.19;84.35;99870.81;5077832;28;1266;-72
2021/03/14 04:00:56;;;;;;;;;;;;;;;2.30;83.20;99864.00;5077976;28;974;-72
2021/03/14 04:03:23;;;;;;;;;;;;;;;2.25;83.67;99877.75;5077892;28;1062;-72
2021/03/14 04:05:55;;;;;;;;;;;;;;;2.29;82.91;99886.91;5076843;28;825;-72
2021/03/14 04:08:21;;;;;;;;;;;;;;;2.36;82.08;99887.25;5077812;28;1894;-72
2021/03/14 04:10:46;;;;;;;;;;;;;;;2.41;82.31;99892.59;5078161;28;790;-72
2021/03/14 04:13:12;;;;;;;;;;;;;;;2.60;78.88;99903.25;5077863;28;1070;-71
2021/03/14 04:15:37;;;;;;;;;;;;;;;2.55;79.91;99906.13;5077595;28;1003;-71
2021/03/14 04:18:04;;;;;;;;;;;;;;;2.72;77.77;99904.63;5077420;28;1337;-71
2021/03/14 04:20:33;;;;;;;;;;;;;;;2.79;77.82;99903.03;5077664;28;888;-71
2021/03/14 04:23:02;;;;;;;;;;;;;;;2.81;80.45;99903.53;5077657;28;802;-71
2021/03/14 04:25:29;;;;;;;;;;;;;;;2.82;82.41;99920.66;5077432;28;1000;-72
2021/03/14 04:27:57;;;;;;;;;;;;;;;2.93;82.89;99922.00;5077216;28;1380;-72
2021/03/14 04:30:26;;;;;;;;;;;;;;;2.87;83.77;99931.44;5077353;28;1894;-71
2021/03/14 04:32:52;;;;;;;;;;;;;;;2.81;85.65;99938.16;5077490;28;955;-72
2021/03/14 04:35:19;;;;;;;;;;;;;;;2.77;86.86;99948.09;5077379;28;961;-71
2021/03/14 04:37:44;;;;;;;;;;;;;;;2.80;87.93;99952.91;5092659;28;1196;-72
2021/03/14 04:40:12;;;;;;;;;;;;;;;2.75;88.35;99953.03;5077584;28;1345;-71
2021/03/14 04:42:40;;;;;;;;;;;;;;;2.72;89.24;99954.47;5077270;28;830;-72
2021/03/14 04:45:07;;;;;;;;;;;;;;;2.68;89.61;99971.75;5077155;28;888;-71
2021/03/14 04:47:33;;;;;;;;;;;;;;;2.63;89.96;99964.53;5077461;28;1209;-71
2021/03/14 04:49:58;;;;;;;;;;;;;;;2.62;89.57;99982.00;5076874;28;1893;-71
2021/03/14 04:52:24;;;;;;;;;;;;;;;2.64;89.68;99985.22;5077049;28;945;-72
2021/03/14 04:54:51;;;;;;;;;;;;;;;2.60;89.91;99984.25;5077210;28;980;-72
2021/03/14 04:57:18;;;;;;;;;;;;;;;2.56;90.06;99989.50;5076740;28;1066;-72
2021/03/14 04:59:44;;;;;;;;;;;;;;;2.64;89.56;99988.75;5076896;28;1325;-71
2021/03/14 05:02:12;;;;;;;;;;;;;;;2.64;89.70;99991.47;5076689;28;837;-72
2021/03/14 05:04:38;;;;;;;;;;;;;;;2.62;90.23;99999.16;5076728;28;940;-72
2021/03/14 05:07:04;;;;;;;;;;;;;;;2.71;89.76;100001.13;5076521;28;829;-72
2021/03/14 05:09:31;;;;;;;;;;;;;;;2.69;90.43;100009.63;5076570;28;1961;-72
2021/03/14 05:11:58;;;;;;;;;;;;;;;2.73;90.83;100012.53;5076634;28;964;-72
2021/03/14 05:14:23;;;;;;;;;;;;;;;2.75;90.37;100013.00;5076524;28;867;-72
2021/03/14 05:16:49;;;;;;;;;;;;;;;2.78;90.87;100026.03;5076523;28;876;-71
2021/03/14 05:19:17;;;;;;;;;;;;;;;2.77;90.98;100025.25;5076240;28;1214;-72
2021/03/14 05:21:42;;;;;;;;;;;;;;;2.83;90.06;100032.16;5076559;28;1000;-72
2021/03/14 05:24:12;;;;;;;;;;;;;;;2.89;89.93;100032.03;5076646;28;830;-72
2021/03/14 05:26:40;;;;;;;;;;;;;;;2.92;89.86;100039.59;5076595;28;753;-72
2021/03/14 05:29:10;;;;;;;;;;;;;;;2.94;89.80;100046.38;5076089;28;1906;-72
2021/03/14 05:31:36;;;;;;;;;;;;;;;2.93;89.75;100052.13;5076435;28;814;-72
2021/03/14 05:34:04;;;;;;;;;;;;;;;2.95;90.30;100053.41;5076048;28;1055;-72
2021/03/14 05:36:30;;;;;;;;;;;;;;;3.05;90.14;100067.91;5076184;28;924;-72
2021/03/14 05:38:58;;;;;;;;;;;;;;;3.03;89.94;100057.31;5075801;28;1310;-72
2021/03/14 05:41:24;;;;;;;;;;;;;;;3.04;89.16;100067.09;5076314;28;797;-72
2021/03/14 05:43:50;;;;;;;;;;;;;;;2.99;89.59;100070.78;5076241;28;1015;-72
2021/03/14 05:46:16;;;;;;;;;;;;;;;3.09;89.32;100072.41;5075913;28;1003;-71
2021/03/14 05:48:44;;;;;;;;;;;;;;;3.01;89.71;100073.16;5075850;28;1907;-72
2021/03/14 05:51:10;;;;;;;;;;;;;;;2.99;89.64;100080.88;5076025;28;1000;-71
2021/03/14 05:53:40;;;;;;;;;;;;;;;3.04;90.02;100080.72;5074625;28;1355;-71
2021/03/14 05:56:10;;;;;;;;;;;;;;;3.08;88.84;100098.09;5075838;28;840;-72
2021/03/14 05:58:37;;;;;;;;;;;;;;;3.13;89.42;100097.97;5075558;28;1356;-71
2021/03/14 06:01:08;;;;;;;;;;;;;;;3.25;88.31;100100.09;5076004;28;1015;-71
2021/03/14 06:03:36;;;;;;;;;;;;;;;3.20;88.90;100101.06;5075747;28;931;-72
2021/03/14 06:06:03;;;;;;;;;;;;;;;3.25;89.22;100110.22;5074423;28;1175;-71
2021/03/14 06:08:30;;;;;;;;;;;;;;;3.25;89.17;100119.22;5075363;28;1886;-71
2021/03/14 06:10:56;;;;;;;;;;;;;;;3.29;88.65;100122.94;5075627;28;838;-72
2021/03/14 06:13:21;;;;;;;;;;;;;;;3.30;89.00;100132.72;5075194;28;968;-72
2021/03/14 06:15:48;;;;;;;;;;;;;;;3.33;89.27;100123.91;5077319;28;896;-72
2021/03/14 06:18:13;;;;;;;;;;;;;;;3.32;89.03;100133.25;5077561;28;1274;-72
2021/03/14 06:20:44;;;;;;;;;;;;;;;3.32;89.02;100140.59;5077562;28;1039;-72
2021/03/14 06:23:16;;;;;;;;;;;;;;;3.36;88.25;100147.88;5077112;28;841;-72
2021/03/14 06:25:44;;;;;;;;;;;;;;;3.40;88.24;100156.22;5076940;28;901;-72
2021/03/14 06:28:11;;;;;;;;;;;;;;;3.46;87.57;100152.25;5075757;28;1898;-72
2021/03/14 06:30:38;;;;;;;;;;;;;;;3.50;87.81;100166.09;5075284;28;801;-72
2021/03/14 06:33:12;;;;;;;;;;;;;;;3.57;87.78;100167.25;5077500;28;876;-72
2021/03/14 06:35:45;;;;;;;;;;;;;;;3.60;87.67;100187.66;5076748;28;1418;-72
2021/03/14 06:38:25;;;;;;;;;;;;;;;3.64;87.36;100187.84;5074660;28;1357;-72
2021/03/14 06:41:13;;;;;;;;;;;;;;;3.72;87.52;100196.09;5075194;28;797;-72
2021/03/14 06:43:43;;;;;;;;;;;;;;;3.82;86.86;100205.91;5074347;28;1185;-72
2021/03/14 06:46:27;;;;;;;;;;;;;;;3.92;86.19;100213.03;5074920;28;824;-72
2021/03/14 06:49:17;;;;;;;;;;;;;;;3.87;85.99;100210.44;5073359;28;1961;-72
2021/03/14 06:51:54;;;;;;;;;;;;;;;3.90;86.23;100221.56;5071937;28;1533;-72
2021/03/14 06:54:47;;;;;;;;;;;;;;;4.05;86.11;100224.97;5075165;28;861;-72
2021/03/14 06:57:14;;;;;;;;;;;;;;;4.07;85.09;100236.44;5074895;28;852;-72
2021/03/14 06:59:54;;;;;;;;;;;;;;;4.12;85.69;100239.81;5074711;28;1285;-72
2021/03/14 07:02:24;;;;;;;;;;;;;;;4.14;85.00;100243.03;5073252;28;1431;-72
2021/03/14 07:05:04;;;;;;;;;;;;;;;4.24;84.48;100247.44;5074453;28;886;-72
2021/03/14 07:07:43;;;;;;;;;;;;;;;4.53;84.28;100259.72;5074146;28;896;-72
2021/03/14 07:10:12;;;;;;;;;;;;;;;4.75;82.66;100258.81;5074443;28;1878;-72
2021/03/14 07:12:43;;;;;;;;;;;;;;;4.65;82.70;100270.06;5074574;28;853;-72
2021/03/14 07:15:29;;;;;;;;;;;;;;;4.64;82.59;100265.72;5074652;28;782;-72
2021/03/14 07:17:56;;;;;;;;;;;;;;;4.61;83.77;100283.56;5074080;28;1349;-72
2021/03/14 07:20:29;;;;;;;;;;;;;;;4.54;83.30;100287.91;5074435;28;884;-72
2021/03/14 07:23:09;;;;;;;;;;;;;;;4.50;83.98;100294.00;5074535;28;825;-72
2021/03/14 07:25:45;;;;;;;;;;;;;;;4.57;83.87;100306.38;5074384;28;817;-72
2021/03/14 07:28:12;;;;;;;;;;;;;;;4.43;83.39;100318.25;5074232;28;1424;-72
2021/03/14 07:30:38;;;;;;;;;;;;;;;4.32;84.20;100316.91;5074214;28;868;-72
2021/03/14 07:33:08;;;;;;;;;;;;;;;4.26;84.81;100320.91;5074275;28;1004;-72
2021/03/14 07:35:33;;;;;;;;;;;;;;;4.27;86.02;100325.25;5074116;28;1051;-72
2021/03/14 07:37:58;;;;;;;;;;;;;;;4.35;85.34;100331.88;5073840;28;1350;-72
2021/03/14 07:40:26;;;;;;;;;;;;;;;4.44;85.01;100338.19;5074435;28;793;-72
2021/03/14 07:42:56;;;;;;;;;;;;;;;4.49;84.40;100351.72;5074352;28;888;-72
2021/03/14 07:45:23;;;;;;;;;;;;;;;4.47;84.15;100348.50;5074139;28;884;-72
2021/03/14 07:47:49;;;;;;;;;;;;;;;4.43;84.22;100350.22;5074055;28;943;-72
2021/03/14 07:50:25;;;;;;;;;;;;;;;4.47;84.51;100356.72;5074103;28;1902;-72
2021/03/14 07:52:55;;;;;;;;;;;;;;;4.51;83.92;100366.69;5074059;28;934;-72
2021/03/14 07:55:22;;;;;;;;;;;;;;;4.50;83.92;100367.81;5074726;28;872;-72
2021/03/14 07:57:49;;;;;;;;;;;;;;;4.55;83.68;100374.25;5073890;28;1050;-72
2021/03/14 08:00:33;;;;;;;;;;;;;;;4.65;83.36;100373.97;5074163;28;1384;-72
2021/03/14 08:03:04;;;;;;;;;;;;;;;4.79;83.06;100365.69;5074392;28;928;-72
2021/03/14 08:05:42;;;;;;;;;;;;;;;4.89;82.57;100368.94;5072549;28;972;-72
2021/03/14 08:08:12;;;;;;;;;;;;;;;5.12;81.57;100377.03;5073611;28;1265;-72
2021/03/14 08:10:42;;;;;;;;;;;;;;;5.54;81.03;100382.94;5073851;28;1890;-72
2021/03/14 08:13:14;;;;;;;;;;;;;;;5.71;79.61;100401.31;5073851;28;996;-72
2021/03/14 08:15:39;;;;;;;;;;;;;;;5.65;80.12;100402.59;5073982;28;869;-72
2021/03/14 08:18:05;;;;;;;;;;;;;;;5.74;79.82;100413.53;5073110;28;1660;-72
2021/03/14 08:20:40;;;;;;;;;;;;;;;5.64;79.91;100412.75;5074029;28;1062;-72
2021/03/14 08:23:15;;;;;;;;;;;;;;;5.55;80.10;100406.44;5074175;28;931;-72
2021/03/14 08:25:43;;;;;;;;;;;;;;;5.36;80.16;100417.69;5073852;28;915;-72
2021/03/14 08:28:30;;;;;;;;;;;;;;;5.13;81.29;100414.25;5073576;28;1255;-72
2021/03/14 08:31:00;;;;;;;;;;;;;;;5.33;81.12;100422.97;5073830;28;941;-72
2021/03/14 08:33:33;;;;;;;;;;;;;;;5.42;80.47;100418.34;5073797;28;949;-72
2021/03/14 08:36:01;;;;;;;;;;;;;;;5.43;80.30;100414.47;5074122;28;814;-72
2021/03/14 08:38:31;;;;;;;;;;;;;;;5.65;80.06;100416.28;5076865;28;1351;-72
2021/03/14 08:41:22;;;;;;;;;;;;;;;5.94;79.20;100426.63;5077490;28;1036;-72
2021/03/14 08:43:54;;;;;;;;;;;;;;;5.94;78.20;100429.34;5077149;28;777;-72
2021/03/14 08:46:19;;;;;;;;;;;;;;;5.91;78.06;100426.47;5077465;28;864;-72
2021/03/14 08:48:46;;;;;;;;;;;;;;;6.35;77.73;100430.81;5076714;28;1886;-72
2021/03/14 08:51:11;;;;;;;;;;;;;;;8.02;71.18;100439.84;5077337;28;852;-72
2021/03/14 08:53:37;;;;;;;;;;;;;;;9.20;65.28;100426.66;5077002;28;862;-73
2021/03/14 08:56:05;;;;;;;;;;;;;;;8.77;67.40;100439.00;5077039;28;821;-73
2021/03/14 08:58:31;;;;;;;;;;;;;;;8.89;66.63;100443.69;5076804;28;1345;-72
2021/03/14 09:01:13;;;;;;;;;;;;;;;8.07;68.35;100447.88;5076761;28;1024;-72
2021/03/14 09:03:43;;;;;;;;;;;;;;;7.98;69.72;100441.66;5076827;28;920;-72
2021/03/14 09:06:29;;;;;;;;;;;;;;;8.35;68.71;100460.28;5077118;28;821;-72
2021/03/14 09:08:57;;;;;;;;;;;;;;;9.70;65.48;100452.19;5076527;28;1889;-72
2021/03/14 09:11:40;;;;;;;;;;;;;;;9.48;63.67;100461.78;5076734;28;901;-72
2021/03/14 09:14:43;;;;;;;;;;;;;;;8.87;66.53;100459.75;5076874;28;888;-72
2021/03/14 09:17:16;;;;;;;;;;;;;;;10.46;61.33;100460.72;5054295;28;1249;-72
2021/03/14 09:19:47;;;;;;;;;;;;;;;10.62;60.04;100463.50;5073082;28;1266;-72
2021/03/14 09:22:26;;;;;;;;;;;;;;;10.22;60.57;100458.03;5076523;28;1323;-72
2021/03/14 09:24:58;;;;;;;;;;;;;;;12.05;55.24;100468.16;5076905;28;1987;-72
2021/03/14 09:27:35;;;;;;;;;;;;;;;12.68;53.51;100467.03;5076454;28;895;-72
2021/03/14 09:30:17;;;;;;;;;;;;;;;16.97;44.18;100463.84;5076391;28;1973;-72
2021/03/14 09:32:50;;;;;;;;;;;;;;;18.09;40.81;100465.34;5076944;28;900;-72
2021/03/14 09:35:18;;;;;;;;;;;;;;;18.18;38.52;100468.47;5076274;28;844;-72
2021/03/14 09:37:56;;;;;;;;;;;;;;;18.69;36.81;100468.25;5075985;28;877;-72
2021/03/14 09:40:41;;;;;;;;;;;;;;;20.23;34.89;100452.91;5076184;28;995;-69
2021/03/14 09:43:15;;;;;;;;;;;;;;;20.75;33.12;100470.66;5076385;28;995;-69
2021/03/14 09:45:51;;;;;;;;;;;;;;;19.33;34.95;100476.22;5075636;28;873;-69
2021/03/14 09:48:22;;;;;;;;;;;;;;;16.64;38.86;100474.91;5075021;28;1389;-69
2021/03/14 09:50:56;;;;;;;;;;;;;;;14.63;44.54;100479.09;5076061;28;873;-70
2021/03/14 09:53:26;;;;;;;;;;;;;;;13.17;48.17;100493.25;5076064;28;853;-70
2021/03/14 09:55:58;;;;;;;;;;;;;;;11.80;51.15;100500.78;5075635;28;908;-69
2021/03/14 09:58:25;;;;;;;;;;;;;;;10.97;54.70;100507.06;5074232;28;1326;-72
2021/03/14 10:00:52;;;;;;;;;;;;;;;9.47;57.50;100514.47;5075384;28;876;-72
2021/03/14 10:03:23;;;;;;;;;;;;;;;8.92;59.67;100520.13;5075809;28;940;-72
2021/03/14 10:05:54;;;;;;;;;;;;;;;9.04;59.98;100516.59;5075299;28;821;-72
2021/03/14 10:08:21;;;;;;;;;;;;;;;14.69;47.16;100512.88;5075059;28;1878;-72
2021/03/14 10:10:48;;;;;;;;;;;;;;;15.46;42.02;100510.47;5075566;28;720;-72
2021/03/14 10:13:14;;;;;;;;;;;;;;;14.94;42.16;100516.72;5075235;28;2038;-72
2021/03/14 10:15:40;;;;;;;;;;;;;;;13.05;44.93;100510.88;5075227;28;913;-72
2021/03/14 10:18:07;;;;;;;;;;;;;;;10.77;51.15;100524.66;5074964;28;1310;-72
2021/03/14 10:20:34;;;;;;;;;;;;;;;11.05;51.07;100539.22;5075265;28;793;-72
2021/03/14 10:23:04;;;;;;;;;;;;;;;11.31;50.86;100535.16;5075344;28;857;-72
2021/03/14 10:25:32;;;;;;;;;;;;;;;10.23;52.95;100542.44;5075325;28;988;-72
2021/03/14 10:28:04;;;;;;;;;;;;;;;10.23;54.62;100534.94;5074754;28;1254;-72
2021/03/14 10:30:30;;;;;;;;;;;;;;;12.31;49.08;100535.94;5074777;28;1969;-72
2021/03/14 10:32:55;;;;;;;;;;;;;;;12.12;48.59;100543.03;5074894;28;913;-72
2021/03/14 10:35:21;;;;;;;;;;;;;;;9.78;54.39;100552.50;5074876;28;953;-72
2021/03/14 10:37:46;;;;;;;;;;;;;;;10.62;52.34;100551.06;5074681;28;854;-72
2021/03/14 10:40:14;;;;;;;;;;;;;;;11.71;49.54;100541.66;5075093;28;1270;-72
2021/03/14 10:42:44;;;;;;;;;;;;;;;11.94;50.06;100552.88;5075174;28;1172;-73
2021/03/14 10:45:15;;;;;;;;;;;;;;;14.77;42.89;100540.38;5076285;28;829;-73
2021/03/14 10:47:42;;;;;;;;;;;;;;;18.54;34.48;100540.22;5076274;28;880;-72
2021/03/14 10:50:27;;;;;;;;;;;;;;;15.62;37.48;100536.00;5073396;28;1975;-70
2021/03/14 10:53:06;;;;;;;;;;;;;;;13.59;43.76;100561.72;5074940;28;929;-70
2021/03/14 10:55:31;;;;;;;;;;;;;;;12.88;45.21;100555.69;5074814;28;814;-70
2021/03/14 10:58:13;;;;;;;;;;;;;;;12.01;45.99;100539.25;5073083;28;1384;-73
2021/03/14 11:00:54;;;;;;;;;;;;;;;10.32;51.35;100568.75;5074540;28;712;-72
2021/03/14 11:03:28;;;;;;;;;;;;;;;9.57;53.91;100574.66;5074445;28;845;-72
2021/03/14 11:06:13;;;;;;;;;;;;;;;8.79;55.40;100571.59;5074433;28;794;-72
2021/03/14 11:09:02;;;;;;;;;;;;;;;9.08;57.73;100583.63;5074168;28;1890;-72
2021/03/14 11:11:41;;;;;;;;;;;;;;;10.11;53.65;100571.66;5074396;28;833;-72
2021/03/14 11:14:41;;;;;;;;;;;;;;;11.73;48.59;100565.06;5074426;28;853;-73
2021/03/14 11:17:14;;;;;;;;;;;;;;;14.61;42.52;100576.72;5074108;28;896;-73
2021/03/14 11:19:42;;;;;;;;;;;;;;;16.10;39.29;100577.75;5074480;28;1313;-73
2021/03/14 11:22:08;;;;;;;;;;;;;;;15.64;39.31;100569.03;5074357;28;888;-73
2021/03/14 11:24:34;;;;;;;;;;;;;;;15.87;37.99;100566.06;5074424;28;891;-72
2021/03/14 11:27:00;;;;;;;;;;;;;;;16.41;36.79;100558.03;5072980;28;841;-70
2021/03/14 11:29:26;;;;;;;;;;;;;;;17.10;35.18;100576.63;5074089;28;1951;-69
2021/03/14 11:31:51;;;;;;;;;;;;;;;17.90;34.98;100575.50;5074187;28;1037;-69
2021/03/14 11:34:19;;;;;;;;;;;;;;;19.51;33.71;100562.06;5073830;28;988;-69
2021/03/14 11:36:44;;;;;;;;;;;;;;;21.01;28.78;100554.06;5074162;28;988;-70
2021/03/14 11:39:09;;;;;;;;;;;;;;;19.22;33.08;100567.06;5073857;28;1267;-69
2021/03/14 11:41:35;;;;;;;;;;;;;;;16.18;36.13;100567.47;5074413;28;860;-69
2021/03/14 11:44:02;;;;;;;;;;;;;;;13.78;40.69;100593.34;5073870;28;782;-69
2021/03/14 11:46:29;;;;;;;;;;;;;;;12.61;46.32;100599.84;5074126;28;857;-70
2021/03/14 11:48:54;;;;;;;;;;;;;;;11.19;50.24;100613.41;5073610;28;1898;-71
2021/03/14 11:51:20;;;;;;;;;;;;;;;9.93;56.08;100619.91;5072912;28;1589;-72
2021/03/14 11:53:45;;;;;;;;;;;;;;;8.80;62.44;100625.50;5073783;28;1230;-72
2021/03/14 11:56:11;;;;;;;;;;;;;;;8.31;65.25;100621.66;5074015;28;814;-72
2021/03/14 11:58:37;;;;;;;;;;;;;;;7.84;68.82;100623.34;5073892;28;1325;-71
2021/03/14 12:01:02;;;;;;;;;;;;;;;7.81;67.57;100609.47;5073987;28;905;-71
2021/03/14 12:03:27;;;;;;;;;;;;;;;8.37;66.75;100618.34;5073907;28;988;-71
2021/03/14 12:05:53;;;;;;;;;;;;;;;8.55;65.33;100627.34;5073879;28;992;-72
2021/03/14 12:08:18;;;;;;;;;;;;;;;8.27;67.57;100627.81;5073479;28;1345;-71
2021/03/14 12:10:43;;;;;;;;;;;;;;;8.18;66.97;100631.75;5073937;28;1965;-72
2021/03/14 12:13:09;;;;;;;;;;;;;;;8.33;67.99;100633.13;5076751;28;992;-72
2021/03/14 12:15:34;;;;;;;;;;;;;;;9.23;67.68;100638.06;5077673;28;888;-72
2021/03/14 12:17:59;;;;;;;;;;;;;;;12.29;58.79;100619.34;5077235;28;1278;-71
2021/03/14 12:20:25;;;;;;;;;;;;;;;16.66;46.73;100605.50;5077769;28;864;-71
2021/03/14 12:22:50;;;;;;;;;;;;;;;19.35;40.50;100599.75;5077466;28;797;-69
2021/03/14 12:25:15;;;;;;;;;;;;;;;22.82;34.18;100580.63;5077423;28;968;-69
2021/03/14 12:27:40;;;;;;;;;;;;;;;21.80;35.55;100591.38;5077491;28;904;-70
2021/03/14 12:30:06;;;;;;;;;;;;;;;20.67;35.63;100584.97;5077201;28;1965;-70
2021/03/14 12:32:33;;;;;;;;;;;;;;;19.47;38.57;100595.69;5077578;28;976;-69
2021/03/14 12:34:58;;;;;;;;;;;;;;;18.61;37.07;100602.50;5076986;28;992;-68
2021/03/14 12:37:23;;;;;;;;;;;;;;;20.26;33.71;100597.00;5076825;28;881;-69
2021/03/14 12:39:49;;;;;;;;;;;;;;;20.06;31.18;100591.22;5077199;28;1285;-69
2021/03/14 12:42:14;;;;;;;;;;;;;;;20.40;32.79;100590.47;5076946;28;793;-69
2021/03/14 12:44:39;;;;;;;;;;;;;;;18.85;33.57;100593.66;5077208;28;940;-69
2021/03/14 12:47:05;;;;;;;;;;;;;;;21.51;31.58;100586.22;5076873;28;900;-69
2021/03/14 12:49:30;;;;;;;;;;;;;;;22.09;30.04;100582.44;5077238;28;1905;-69
2021/03/14 12:51:55;;;;;;;;;;;;;;;22.89;28.57;100588.91;5077276;28;801;-69
2021/03/14 12:54:21;;;;;;;;;;;;;;;21.50;29.24;100590.25;5077261;28;970;-69
2021/03/14 12:56:46;;;;;;;;;;;;;;;19.39;32.14;100590.53;5077421;28;878;-69
2021/03/14 12:59:11;;;;;;;;;;;;;;;19.65;32.42;100587.13;5077071;28;1246;-69
2021/03/14 13:01:37;;;;;;;;;;;;;;;19.59;32.68;100579.56;5077247;28;810;-69
2021/03/14 13:04:02;;;;;;;;;;;;;;;20.92;30.54;100575.44;5077166;28;1039;-69
2021/03/14 13:06:29;;;;;;;;;;;;;;;19.64;32.17;100573.53;5076844;28;900;-69
2021/03/14 13:08:56;;;;;;;;;;;;;;;15.32;39.69;100584.25;5076623;28;1886;-71
2021/03/14 13:11:21;;;;;;;;;;;;;;;13.33;46.89;100598.53;5076992;28;861;-71
2021/03/14 13:13:46;;;;;;;;;;;;;;;12.75;47.95;100599.34;5076959;28;833;-71
2021/03/14 13:16:13;;;;;;;;;;;;;;;12.17;49.01;100600.09;5077364;28;765;-71